Buoy 46915

sailwx.info

Track history (hours):
 
Tides and Currents Weather Stations Pressure Air Temp Water Temp Dewpoint Dewpoint Depression Visibility Wind Speed Wind Dir Waves Ship Positions

Drifting buoy 46915

Last reported at 2018-Feb-23 22:00 UTC. Time now 2018-Feb-24 00:41 UTC.
Position N 50°40' W 129°11'.

Barometer 1019.3 mb
Water temperature 8.0 ° C

Date/timePositionNaut miles runAvg speedWind from/ knotsBaromVisibWave heightAir tempDewpointWater temp
2018-Feb-23 22:00N 50°40' W 129°11'0 0.4 1019.3 8.0
2018-Feb-23 21:00N 50°40' W 129°12'0 0.4 1020.0 8.0
2018-Feb-23 20:00N 50°40' W 129°11'1 0.7 1020.3 8.0
2018-Feb-23 19:00N 50°41' W 129°12'1 1.3 1020.5 8.0
2018-Feb-23 18:00N 50°42' W 129°13'1 0.7 1020.1 8.0
2018-Feb-23 17:00N 50°43' W 129°13'2 2.0 1020.0 7.7
2018-Feb-23 16:00N 50°44' W 129°14'1 1.0 1019.2 7.6
2018-Feb-23 15:00N 50°45' W 129°16'1 0.8 1019.0 7.7
2018-Feb-23 14:00N 50°45' W 129°17'0 0.4 1019.8 7.8
2018-Feb-23 13:00N 50°45' W 129°17'1 0.7 1020.5 7.8
2018-Feb-23 12:00N 50°44' W 129°18'1 0.7 1021.8 8.0
2018-Feb-23 11:00N 50°44' W 129°19'3 2.5 1023.5 8.0
2018-Feb-23 10:00N 50°41' W 129°20'1 0.2 1024.7 8.0
2018-Feb-23 07:00N 50°42' W 129°20'1 0.8 1027.3 8.0
2018-Feb-23 06:00N 50°42' W 129°19'1 0.6 1027.8 8.0
2018-Feb-23 05:00N 50°41' W 129°19'1 1.3 1028.4 7.9
2018-Feb-23 04:00N 50°43' W 129°20'0 0.4 1028.6 7.9
2018-Feb-23 03:00N 50°43' W 129°19'1 0.7 1028.6 7.9
2018-Feb-23 02:00N 50°42' W 129°20'1 1.0 1028.7 8.0
2018-Feb-23 01:00N 50°43' W 129°21'1 0.7 1029.0 8.0
2018-Feb-23 00:00N 50°43' W 129°22'2 1.7 1029.4 8.0
2018-Feb-22 23:00N 50°42' W 129°23'0 0.0 1029.7 8.0
2018-Feb-22 22:00N 50°42' W 129°23'1 1.3 1030.1 8.0
2018-Feb-22 21:00N 50°41' W 129°24'0 0.4 1030.7 7.9
2018-Feb-22 20:00N 50°41' W 129°23'0 0.0 1030.9 7.9
2018-Feb-22 19:00N 50°41' W 129°23'0 0.4 1030.9 7.9
2018-Feb-22 18:00N 50°41' W 129°23'1 0.7 1030.7 7.9
2018-Feb-22 17:00N 50°41' W 129°22'0 0.4 1030.3 7.9
2018-Feb-22 16:00N 50°41' W 129°23'1 1.2 1029.8 7.9
2018-Feb-22 15:00N 50°43' W 129°23'1 0.7 1029.4 7.9
2018-Feb-22 14:00N 50°43' W 129°22'1 1.3 1029.3 7.9
2018-Feb-22 13:00N 50°44' W 129°24'1 1.3 1028.7 7.9
2018-Feb-22 12:00N 50°44' W 129°26'3 2.7 1028.9 7.9
2018-Feb-22 11:00N 50°44' W 129°22'0 0.0 1028.9 7.9
2018-Feb-22 10:00N 50°44' W 129°22'2 0.7 1028.7 7.9
2018-Feb-22 07:00N 50°45' W 129°19'0 0.0 1027.6 8.1
2018-Feb-22 06:00N 50°45' W 129°19'1 1.3 1027.1 8.0
2018-Feb-22 05:00N 50°46' W 129°17'1 1.4 1026.3 7.9
2018-Feb-22 04:00N 50°47' W 129°16'1 1.3 1026.0 7.9
2018-Feb-22 03:00N 50°48' W 129°15'2 2.1 1025.5 7.9
2018-Feb-22 02:00N 50°50' W 129°13'1 1.3 1025.2 7.8
2018-Feb-22 01:00N 50°51' W 129°13'0 0.0 1025.3 7.8
2018-Feb-22 00:00N 50°51' W 129°13'2 2.4 1025.2 7.8
2018-Feb-21 23:00N 50°53' W 129°13'0 0.0 1025.1 7.6
2018-Feb-21 22:00N 50°53' W 129°13'2 2.0 1024.9 7.5
2018-Feb-21 21:00N 50°55' W 129°14'0 0.0 1024.7 7.5
2018-Feb-21 20:00N 50°55' W 129°14'1 1.3 1025.0 7.5
2018-Feb-21 19:00N 50°56' W 129°15'1 0.7 1024.6 7.6
2018-Feb-21 18:00N 50°57' W 129°14'0 0.4 1024.7 7.8
2018-Feb-21 17:00N 50°57' W 129°15'1 0.7 1024.6 7.8
2018-Feb-21 16:00N 50°58' W 129°14'1 1.3 1024.7 7.8
2018-Feb-21 15:00N 50°58' W 129°13'1 1.3 1025.1 7.8
2018-Feb-21 14:00N 50°59' W 129°13'1 0.7 1025.8 7.8
2018-Feb-21 13:00N 51°00' W 129°14'1 1.3 1025.7 7.8
2018-Feb-21 12:00N 51°01' W 129°12'1 0.8 1025.9 7.8
2018-Feb-21 11:00N 51°01' W 129°13'0 0.0 1027.5 7.8
2018-Feb-21 10:00N 51°01' W 129°13'1 0.3 1027.5 7.8
2018-Feb-21 07:00N 51°00' W 129°14'1 0.8 1027.7 7.8
2018-Feb-21 06:00N 51°00' W 129°13'1 0.7 1028.5 7.8
2018-Feb-21 05:00N 51°01' W 129°13'0 0.0 1027.8 7.8
2018-Feb-21 04:00N 51°01' W 129°13'2 1.9 1027.3 7.8
2018-Feb-21 03:00N 51°02' W 129°10'0 0.0 1026.6 7.8
2018-Feb-21 02:00N 51°02' W 129°10'1 0.7 1026.5 7.8
2018-Feb-21 01:00N 51°02' W 129°10'1 1.2 1026.2 7.8
2018-Feb-21 00:00N 51°04' W 129°10'1 1.0 1025.6 7.9
2018-Feb-20 23:00N 51°04' W 129°11'0 0.0 1025.5 7.8
2018-Feb-20 22:00N 51°04' W 129°11'0 0.4 1025.1 7.8
2018-Feb-20 21:00N 51°04' W 129°11'0 0.0 1025.3 7.8
2018-Feb-20 20:00N 51°04' W 129°11'1 0.7 1025.2 7.8
2018-Feb-20 19:00N 51°04' W 129°11'0 0.0 1025.0 7.8
2018-Feb-20 18:00N 51°04' W 129°11'1 1.0 1024.0 7.8
2018-Feb-20 17:00N 51°03' W 129°10'1 0.6 1023.7 7.8
2018-Feb-20 16:00N 51°04' W 129°10'1 1.0 1023.1 7.8
2018-Feb-20 15:00N 51°04' W 129°08'1 1.1 1022.2 7.8
2018-Feb-20 14:00N 51°04' W 129°07'1 0.6 1021.3 7.8
2018-Feb-20 13:00N 51°05' W 129°07'1 0.7 1021.1 7.8
2018-Feb-20 12:00N 51°04' W 129°07'1 1.4 1021.1 7.8
2018-Feb-20 11:00N 51°03' W 129°08'0 0.0 1020.8 7.8
2018-Feb-20 10:00N 51°03' W 129°08'0 0.0 1020.7 7.8
2018-Feb-20 07:00N 51°03' W 129°08'1 0.6 1020.9 7.8
2018-Feb-20 06:00N 51°02' W 129°08'0 0.4 1021.0 7.8
2018-Feb-20 05:00N 51°02' W 129°08'1 0.8 1020.9 7.8
2018-Feb-20 04:00N 51°02' W 129°07'0 0.4 1021.3 7.8
2018-Feb-20 03:00N 51°02' W 129°06'1 1.3 1021.6 7.9
2018-Feb-20 02:00N 51°03' W 129°04'0 0.0 1021.7 7.9
2018-Feb-20 01:00N 51°03' W 129°04'0 0.4 1022.1 7.9
2018-Feb-20 00:00N 51°03' W 129°04'2 1.8 1022.5 7.9
2018-Feb-19 23:00N 51°05' W 129°04'0 0.0 1023.1 7.9
2018-Feb-19 22:00N 51°05' W 129°04'1 1.0 1023.6 7.9
2018-Feb-19 21:00N 51°04' W 129°05'0 0.0 1024.7 7.9
2018-Feb-19 20:00N 51°04' W 129°05'1 0.8 1025.0 7.8
2018-Feb-19 19:00N 51°04' W 129°06'0 0.4 1025.0 7.8
2018-Feb-19 18:00N 51°04' W 129°05'0 0.0 1025.5 7.8
2018-Feb-19 17:00N 51°04' W 129°05'1 1.0 1025.7 7.8
2018-Feb-19 16:00N 51°05' W 129°04'0 0.4 1025.4 7.9
2018-Feb-19 15:00N 51°05' W 129°04'1 0.8 1025.7 7.8
2018-Feb-19 14:00N 51°05' W 129°05'3 2.6 1025.5 7.9
2018-Feb-19 13:00N 51°07' W 129°02'0 0.0 1025.2 7.9
2018-Feb-19 12:00N 51°07' W 129°02'3 2.5 1025.0 7.9
2018-Feb-19 11:00N 51°09' W 129°03'0 0.0 1025.3 7.9
2018-Feb-19 10:00N 51°09' W 129°03'0 0.0 1025.2 8.0
2018-Feb-19 06:00N 51°09' W 129°03'0 0.4 1024.7 8.0
2018-Feb-19 05:00N 51°09' W 129°04'1 1.1 1024.4 8.0
2018-Feb-19 04:00N 51°09' W 129°02'1 1.4 1024.3 8.0
2018-Feb-19 03:00N 51°10' W 129°01'1 1.3 1024.1 8.0
2018-Feb-19 02:00N 51°11' W 128°59'1 0.6 1023.7 8.0
2018-Feb-19 01:00N 51°11' W 128°59'0 0.4 1023.4 8.0
2018-Feb-19 00:00N 51°11' W 128°58'2 1.6 1023.2 8.0
2018-Feb-18 23:00N 51°13' W 128°56'1 0.7 1022.7 7.9
2018-Feb-18 22:00N 51°13' W 128°57'1 0.7 1022.2 8.0
2018-Feb-18 21:00N 51°14' W 128°56'0 0.0 1022.6 8.0
2018-Feb-18 20:00N 51°14' W 128°56'1 0.7 1021.9 8.2
2018-Feb-18 19:00N 51°14' W 128°56'1 1.4 1021.5 8.2
2018-Feb-18 18:00N 51°16' W 128°55'0 0.0 1020.8 8.3
2018-Feb-18 17:00N 51°16' W 128°55'2 1.6 1019.9 8.2
2018-Feb-18 16:00N 51°17' W 128°53'0 0.4 1019.6 8.2
2018-Feb-18 15:00N 51°17' W 128°53'2 2.4 1018.6 8.2
2018-Feb-18 14:00N 51°19' W 128°53'0 0.4 1017.7 5.6
2018-Feb-18 13:00N 51°19' W 128°53'2 1.9 1016.9 8.3
2018-Feb-18 12:00N 51°21' W 128°52'4 3.6 1015.8 8.3
2018-Feb-18 11:00N 51°25' W 128°52'0 0.0 1014.7 8.4
2018-Feb-18 07:00N 51°25' W 128°52'1 0.7 1011.2 8.1
2018-Feb-18 06:00N 51°25' W 128°52'1 0.6 1010.3 8.0
2018-Feb-18 05:00N 51°26' W 128°52'1 0.6 1009.3 8.0
2018-Feb-18 04:00N 51°26' W 128°52'2 2.2 1007.8 8.0
2018-Feb-18 03:00N 51°28' W 128°49'1 1.0 1006.0 8.0
2018-Feb-18 02:00N 51°28' W 128°48'2 1.6 1004.9 8.0
2018-Feb-18 01:00N 51°29' W 128°46'0 0.0 1004.6 8.0
2018-Feb-18 00:00N 51°29' W 128°46'4 3.6 1003.8 8.0
2018-Feb-17 23:00N 51°33' W 128°46'0 0.0 1003.5 8.0
2018-Feb-17 22:00N 51°33' W 128°46'2 2.1 1003.7 8.0
2018-Feb-17 21:00N 51°35' W 128°47'0 0.0 1004.0 8.0
2018-Feb-17 20:00N 51°35' W 128°47'2 1.9 1004.1 8.0
2018-Feb-17 19:00N 51°35' W 128°50'1 0.7 1004.2 8.0
2018-Feb-17 18:00N 51°34' W 128°51'0 0.0 1004.1 8.0
2018-Feb-17 17:00N 51°34' W 128°51'2 1.6 1003.8 8.0
2018-Feb-17 16:00N 51°35' W 128°49'1 0.6 1002.6 8.0
2018-Feb-17 15:00N 51°35' W 128°49'1 1.3 1001.0 8.0
2018-Feb-17 14:00N 51°35' W 128°47'0 0.0 1001.7 8.0
2018-Feb-17 13:00N 51°35' W 128°47'2 1.9 1003.5 8.0
2018-Feb-17 12:00N 51°36' W 128°44'0 0.0 1005.1 8.0
2018-Feb-17 11:00N 51°36' W 128°44'0 0.0 1007.2 8.0
2018-Feb-17 09:00N 51°36' W 128°44'1 0.6 1014.0 8.0
2018-Feb-17 07:00N 51°35' W 128°46'1 0.7 1016.1 8.0
2018-Feb-17 06:00N 51°35' W 128°47'1 1.0 1017.4 8.0
2018-Feb-17 05:00N 51°34' W 128°48'1 0.6 1019.0 8.0
2018-Feb-17 04:00N 51°34' W 128°48'1 1.0 1020.2 8.0
2018-Feb-17 03:00N 51°33' W 128°47'0 0.0 1020.6 8.0
2018-Feb-17 02:00N 51°33' W 128°47'3 2.5 1021.7 8.0
2018-Feb-17 01:00N 51°34' W 128°43'0 0.0 1021.9 8.0
2018-Feb-17 00:00N 51°34' W 128°43'0 0.0 1022.9 8.0
2018-Feb-16 23:00N 51°34' W 128°43'3 3.1 1023.0 8.0
2018-Feb-16 22:00N 51°37' W 128°44'0 0.0 1022.9 8.0
2018-Feb-16 21:00N 51°37' W 128°44'0 0.4 1022.9 8.0
2018-Feb-16 20:00N 51°37' W 128°45'1 0.7 1023.1 8.0
2018-Feb-16 19:00N 51°37' W 128°46'0 0.0 1023.2 8.0
2018-Feb-16 18:00N 51°37' W 128°46'0 0.4 1023.0 8.0
2018-Feb-16 17:00N 51°37' W 128°47'1 0.6 1023.1 8.0
2018-Feb-16 16:00N 51°37' W 128°47'1 1.3 1022.5 8.0
2018-Feb-16 15:00N 51°38' W 128°46'0 0.4 1021.6 8.0
2018-Feb-16 14:00N 51°38' W 128°46'1 1.3 1021.1 8.0
2018-Feb-16 13:00N 51°39' W 128°45'3 3.5 1020.9 8.2
2018-Feb-16 12:00N 51°41' W 128°50'0 0.0 1020.8 8.2
2018-Feb-16 11:00N 51°41' W 128°50'0 0.0 1020.7 8.3
2018-Feb-16 10:00N 51°41' W 128°50'0 0.0 1021.1 8.3
2018-Feb-16 07:00N 51°41' W 128°50'1 1.3 1022.1 8.3
2018-Feb-16 06:00N 51°40' W 128°52'2 1.9 1022.6 8.2
2018-Feb-16 05:00N 51°39' W 128°54'1 0.6 1023.4 8.3
2018-Feb-16 04:00N 51°38' W 128°54'1 0.6 1023.8 8.3
2018-Feb-16 03:00N 51°38' W 128°54'1 0.6 1023.7 8.3
2018-Feb-16 02:00N 51°37' W 128°54'1 0.7 1023.9 8.3
2018-Feb-16 01:00N 51°38' W 128°53'0 0.4 1024.5 8.3
2018-Feb-16 00:00N 51°38' W 128°53'0 0.4 1025.0 8.3
2018-Feb-15 23:00N 51°38' W 128°53'1 1.4 1025.3 8.3
2018-Feb-15 22:00N 51°39' W 128°52'0 0.0 1025.8 8.2
2018-Feb-15 21:00N 51°39' W 128°52'1 1.5 1026.3 8.2
2018-Feb-15 20:00N 51°39' W 128°55'1 1.3 1026.7 8.1
2018-Feb-15 19:00N 51°38' W 128°56'1 0.7 1027.1 8.0
2018-Feb-15 18:00N 51°38' W 128°56'1 1.2 1027.3 8.0
2018-Feb-15 17:00N 51°37' W 128°56'0 0.0 1027.8 8.0
2018-Feb-15 16:00N 51°37' W 128°56'1 1.0 1027.7 8.0
2018-Feb-15 15:00N 51°36' W 128°55'1 0.7 1027.7 8.0
2018-Feb-15 14:00N 51°36' W 128°53'0 0.0 1027.6 8.0
2018-Feb-15 13:00N 51°36' W 128°53'1 0.7 1027.8 8.0
2018-Feb-15 12:00N 51°36' W 128°52'2 1.9 1027.4 8.0
2018-Feb-15 11:00N 51°38' W 128°51'3 3.3 1027.1 8.0
2018-Feb-15 10:00N 51°40' W 128°55'0 0.0 1027.1 8.1
2018-Feb-15 07:00N 51°40' W 128°55'0 0.4 1026.5 8.3
2018-Feb-15 06:00N 51°40' W 128°55'1 1.1 1026.5 8.4
2018-Feb-15 05:00N 51°40' W 128°57'1 1.4 1026.0 8.5
2018-Feb-15 04:00N 51°39' W 128°58'1 0.6 1025.8 8.5
2018-Feb-15 03:00N 51°38' W 128°58'1 1.3 1025.5 8.5
2018-Feb-15 02:00N 51°40' W 128°58'1 0.7 1025.1 8.5
2018-Feb-15 01:00N 51°40' W 128°56'1 0.7 1024.2 8.5
2018-Feb-15 00:00N 51°40' W 128°56'1 1.3 1024.1 8.5
2018-Feb-14 23:00N 51°41' W 128°55'1 1.2 1023.4 8.5
2018-Feb-14 22:00N 51°43' W 128°55'0 0.0 1023.1 8.5
2018-Feb-14 21:00N 51°43' W 128°55'1 1.2 1022.8 8.5
2018-Feb-14 20:00N 51°44' W 128°55'1 0.7 1022.6 8.5
2018-Feb-14 19:00N 51°44' W 128°56'0 0.4 1022.0 8.5
2018-Feb-14 18:00N 51°44' W 128°57'1 0.7 1021.8 8.5
2018-Feb-14 17:00N 51°44' W 128°58'0 0.4 1021.2 8.5
2018-Feb-14 16:00N 51°44' W 128°58'0 0.0 1020.6 8.5
2018-Feb-14 15:00N 51°44' W 128°58'1 0.6 1019.7 8.5
2018-Feb-14 14:00N 51°45' W 128°58'1 0.6 1018.9 8.5
2018-Feb-14 13:00N 51°46' W 128°58'1 0.7 1018.3 8.5
2018-Feb-14 12:00N 51°45' W 128°58'1 1.3 1017.9 8.5
2018-Feb-14 11:00N 51°46' W 128°58'2 1.9 1017.7 8.5
2018-Feb-14 10:00N 51°47' W 129°01'0 0.1 1017.1 8.5
2018-Feb-14 06:00N 51°47' W 129°01'1 0.7 1015.3 8.5
2018-Feb-14 05:00N 51°47' W 129°02'0 0.4 1015.0 8.5
2018-Feb-14 04:00N 51°47' W 129°02'1 0.7 1014.7 8.5
2018-Feb-14 03:00N 51°47' W 129°03'0 0.4 1014.4 8.5
2018-Feb-14 02:00N 51°47' W 129°04'1 0.6 1014.3 8.4
2018-Feb-14 01:00N 51°48' W 129°04'0 0.4 1013.7 8.5
2018-Feb-14 00:00N 51°48' W 129°04'1 1.3 1013.5 8.5
2018-Feb-13 23:00N 51°49' W 129°04'2 1.6 1012.7 8.4
2018-Feb-13 22:00N 51°48' W 129°05'   1012.2 8.4
Track history (hours):
 
Tides and Currents Weather Stations Pressure Air Temp Water Temp Dewpoint Dewpoint Depression Visibility Wind Speed Wind Dir Waves Ship Positions

Drifting buoy 46915

Last reported at 2018-Feb-23 22:00 UTC. Time now 2018-Feb-24 00:41 UTC.
Position N 50°40' W 129°11'.

Barometer 1019.3 mb
Water temperature 8.0 ° C

Date/timePositionNaut miles runAvg speedWind from/ knotsBaromVisibWave heightAir tempDewpointWater temp
2018-Feb-23 22:00N 50°40' W 129°11'0 0.4 1019.3 8.0
2018-Feb-23 21:00N 50°40' W 129°12'0 0.4 1020.0 8.0
2018-Feb-23 20:00N 50°40' W 129°11'1 0.7 1020.3 8.0
2018-Feb-23 19:00N 50°41' W 129°12'1 1.3 1020.5 8.0
2018-Feb-23 18:00N 50°42' W 129°13'1 0.7 1020.1 8.0
2018-Feb-23 17:00N 50°43' W 129°13'2 2.0 1020.0 7.7
2018-Feb-23 16:00N 50°44' W 129°14'1 1.0 1019.2 7.6
2018-Feb-23 15:00N 50°45' W 129°16'1 0.8 1019.0 7.7
2018-Feb-23 14:00N 50°45' W 129°17'0 0.4 1019.8 7.8
2018-Feb-23 13:00N 50°45' W 129°17'1 0.7 1020.5 7.8
2018-Feb-23 12:00N 50°44' W 129°18'1 0.7 1021.8 8.0
2018-Feb-23 11:00N 50°44' W 129°19'3 2.5 1023.5 8.0
2018-Feb-23 10:00N 50°41' W 129°20'1 0.2 1024.7 8.0
2018-Feb-23 07:00N 50°42' W 129°20'1 0.8 1027.3 8.0
2018-Feb-23 06:00N 50°42' W 129°19'1 0.6 1027.8 8.0
2018-Feb-23 05:00N 50°41' W 129°19'1 1.3 1028.4 7.9
2018-Feb-23 04:00N 50°43' W 129°20'0 0.4 1028.6 7.9
2018-Feb-23 03:00N 50°43' W 129°19'1 0.7 1028.6 7.9
2018-Feb-23 02:00N 50°42' W 129°20'1 1.0 1028.7 8.0
2018-Feb-23 01:00N 50°43' W 129°21'1 0.7 1029.0 8.0
2018-Feb-23 00:00N 50°43' W 129°22'2 1.7 1029.4 8.0
2018-Feb-22 23:00N 50°42' W 129°23'0 0.0 1029.7 8.0
2018-Feb-22 22:00N 50°42' W 129°23'1 1.3 1030.1 8.0
2018-Feb-22 21:00N 50°41' W 129°24'0 0.4 1030.7 7.9
2018-Feb-22 20:00N 50°41' W 129°23'0 0.0 1030.9 7.9
2018-Feb-22 19:00N 50°41' W 129°23'0 0.4 1030.9 7.9
2018-Feb-22 18:00N 50°41' W 129°23'1 0.7 1030.7 7.9
2018-Feb-22 17:00N 50°41' W 129°22'0 0.4 1030.3 7.9
2018-Feb-22 16:00N 50°41' W 129°23'1 1.2 1029.8 7.9
2018-Feb-22 15:00N 50°43' W 129°23'1 0.7 1029.4 7.9
2018-Feb-22 14:00N 50°43' W 129°22'1 1.3 1029.3 7.9
2018-Feb-22 13:00N 50°44' W 129°24'1 1.3 1028.7 7.9
2018-Feb-22 12:00N 50°44' W 129°26'3 2.7 1028.9 7.9
2018-Feb-22 11:00N 50°44' W 129°22'0 0.0 1028.9 7.9
2018-Feb-22 10:00N 50°44' W 129°22'2 0.7 1028.7 7.9
2018-Feb-22 07:00N 50°45' W 129°19'0 0.0 1027.6 8.1
2018-Feb-22 06:00N 50°45' W 129°19'1 1.3 1027.1 8.0
2018-Feb-22 05:00N 50°46' W 129°17'1 1.4 1026.3 7.9
2018-Feb-22 04:00N 50°47' W 129°16'1 1.3 1026.0 7.9
2018-Feb-22 03:00N 50°48' W 129°15'2 2.1 1025.5 7.9
2018-Feb-22 02:00N 50°50' W 129°13'1 1.3 1025.2 7.8
2018-Feb-22 01:00N 50°51' W 129°13'0 0.0 1025.3 7.8
2018-Feb-22 00:00N 50°51' W 129°13'2 2.4 1025.2 7.8
2018-Feb-21 23:00N 50°53' W 129°13'0 0.0 1025.1 7.6
2018-Feb-21 22:00N 50°53' W 129°13'2 2.0 1024.9 7.5
2018-Feb-21 21:00N 50°55' W 129°14'0 0.0 1024.7 7.5
2018-Feb-21 20:00N 50°55' W 129°14'1 1.3 1025.0 7.5
2018-Feb-21 19:00N 50°56' W 129°15'1 0.7 1024.6 7.6
2018-Feb-21 18:00N 50°57' W 129°14'0 0.4 1024.7 7.8
2018-Feb-21 17:00N 50°57' W 129°15'1 0.7 1024.6 7.8
2018-Feb-21 16:00N 50°58' W 129°14'1 1.3 1024.7 7.8
2018-Feb-21 15:00N 50°58' W 129°13'1 1.3 1025.1 7.8
2018-Feb-21 14:00N 50°59' W 129°13'1 0.7 1025.8 7.8
2018-Feb-21 13:00N 51°00' W 129°14'1 1.3 1025.7 7.8
2018-Feb-21 12:00N 51°01' W 129°12'1 0.8 1025.9 7.8
2018-Feb-21 11:00N 51°01' W 129°13'0 0.0 1027.5 7.8
2018-Feb-21 10:00N 51°01' W 129°13'1 0.3 1027.5 7.8
2018-Feb-21 07:00N 51°00' W 129°14'1 0.8 1027.7 7.8
2018-Feb-21 06:00N 51°00' W 129°13'1 0.7 1028.5 7.8
2018-Feb-21 05:00N 51°01' W 129°13'0 0.0 1027.8 7.8
2018-Feb-21 04:00N 51°01' W 129°13'2 1.9 1027.3 7.8
2018-Feb-21 03:00N 51°02' W 129°10'0 0.0 1026.6 7.8
2018-Feb-21 02:00N 51°02' W 129°10'1 0.7 1026.5 7.8
2018-Feb-21 01:00N 51°02' W 129°10'1 1.2 1026.2 7.8
2018-Feb-21 00:00N 51°04' W 129°10'1 1.0 1025.6 7.9
2018-Feb-20 23:00N 51°04' W 129°11'0 0.0 1025.5 7.8
2018-Feb-20 22:00N 51°04' W 129°11'0 0.4 1025.1 7.8
2018-Feb-20 21:00N 51°04' W 129°11'0 0.0 1025.3 7.8
2018-Feb-20 20:00N 51°04' W 129°11'1 0.7 1025.2 7.8
2018-Feb-20 19:00N 51°04' W 129°11'0 0.0 1025.0 7.8
2018-Feb-20 18:00N 51°04' W 129°11'1 1.0 1024.0 7.8
2018-Feb-20 17:00N 51°03' W 129°10'1 0.6 1023.7 7.8
2018-Feb-20 16:00N 51°04' W 129°10'1 1.0 1023.1 7.8
2018-Feb-20 15:00N 51°04' W 129°08'1 1.1 1022.2 7.8
2018-Feb-20 14:00N 51°04' W 129°07'1 0.6 1021.3 7.8
2018-Feb-20 13:00N 51°05' W 129°07'1 0.7 1021.1 7.8
2018-Feb-20 12:00N 51°04' W 129°07'1 1.4 1021.1 7.8
2018-Feb-20 11:00N 51°03' W 129°08'0 0.0 1020.8 7.8
2018-Feb-20 10:00N 51°03' W 129°08'0 0.0 1020.7 7.8
2018-Feb-20 07:00N 51°03' W 129°08'1 0.6 1020.9 7.8
2018-Feb-20 06:00N 51°02' W 129°08'0 0.4 1021.0 7.8
2018-Feb-20 05:00N 51°02' W 129°08'1 0.8 1020.9 7.8
2018-Feb-20 04:00N 51°02' W 129°07'0 0.4 1021.3 7.8
2018-Feb-20 03:00N 51°02' W 129°06'1 1.3 1021.6 7.9
2018-Feb-20 02:00N 51°03' W 129°04'0 0.0 1021.7 7.9
2018-Feb-20 01:00N 51°03' W 129°04'0 0.4 1022.1 7.9
2018-Feb-20 00:00N 51°03' W 129°04'2 1.8 1022.5 7.9
2018-Feb-19 23:00N 51°05' W 129°04'0 0.0 1023.1 7.9
2018-Feb-19 22:00N 51°05' W 129°04'1 1.0 1023.6 7.9
2018-Feb-19 21:00N 51°04' W 129°05'0 0.0 1024.7 7.9
2018-Feb-19 20:00N 51°04' W 129°05'1 0.8 1025.0 7.8
2018-Feb-19 19:00N 51°04' W 129°06'0 0.4 1025.0 7.8
2018-Feb-19 18:00N 51°04' W 129°05'0 0.0 1025.5 7.8
2018-Feb-19 17:00N 51°04' W 129°05'1 1.0 1025.7 7.8
2018-Feb-19 16:00N 51°05' W 129°04'0 0.4 1025.4 7.9
2018-Feb-19 15:00N 51°05' W 129°04'1 0.8 1025.7 7.8
2018-Feb-19 14:00N 51°05' W 129°05'3 2.6 1025.5 7.9
2018-Feb-19 13:00N 51°07' W 129°02'0 0.0 1025.2 7.9
2018-Feb-19 12:00N 51°07' W 129°02'3 2.5 1025.0 7.9
2018-Feb-19 11:00N 51°09' W 129°03'0 0.0 1025.3 7.9
2018-Feb-19 10:00N 51°09' W 129°03'0 0.0 1025.2 8.0
2018-Feb-19 06:00N 51°09' W 129°03'0 0.4 1024.7 8.0
2018-Feb-19 05:00N 51°09' W 129°04'1 1.1 1024.4 8.0
2018-Feb-19 04:00N 51°09' W 129°02'1 1.4 1024.3 8.0
2018-Feb-19 03:00N 51°10' W 129°01'1 1.3 1024.1 8.0
2018-Feb-19 02:00N 51°11' W 128°59'1 0.6 1023.7 8.0
2018-Feb-19 01:00N 51°11' W 128°59'0 0.4 1023.4 8.0
2018-Feb-19 00:00N 51°11' W 128°58'2 1.6 1023.2 8.0
2018-Feb-18 23:00N 51°13' W 128°56'1 0.7 1022.7 7.9
2018-Feb-18 22:00N 51°13' W 128°57'1 0.7 1022.2 8.0
2018-Feb-18 21:00N 51°14' W 128°56'0 0.0 1022.6 8.0
2018-Feb-18 20:00N 51°14' W 128°56'1 0.7 1021.9 8.2
2018-Feb-18 19:00N 51°14' W 128°56'1 1.4 1021.5 8.2
2018-Feb-18 18:00N 51°16' W 128°55'0 0.0 1020.8 8.3
2018-Feb-18 17:00N 51°16' W 128°55'2 1.6 1019.9 8.2
2018-Feb-18 16:00N 51°17' W 128°53'0 0.4 1019.6 8.2
2018-Feb-18 15:00N 51°17' W 128°53'2 2.4 1018.6 8.2
2018-Feb-18 14:00N 51°19' W 128°53'0 0.4 1017.7 5.6
2018-Feb-18 13:00N 51°19' W 128°53'2 1.9 1016.9 8.3
2018-Feb-18 12:00N 51°21' W 128°52'4 3.6 1015.8 8.3
2018-Feb-18 11:00N 51°25' W 128°52'0 0.0 1014.7 8.4
2018-Feb-18 07:00N 51°25' W 128°52'1 0.7 1011.2 8.1
2018-Feb-18 06:00N 51°25' W 128°52'1 0.6 1010.3 8.0
2018-Feb-18 05:00N 51°26' W 128°52'1 0.6 1009.3 8.0
2018-Feb-18 04:00N 51°26' W 128°52'2 2.2 1007.8 8.0
2018-Feb-18 03:00N 51°28' W 128°49'1 1.0 1006.0 8.0
2018-Feb-18 02:00N 51°28' W 128°48'2 1.6 1004.9 8.0
2018-Feb-18 01:00N 51°29' W 128°46'0 0.0 1004.6 8.0
2018-Feb-18 00:00N 51°29' W 128°46'4 3.6 1003.8 8.0
2018-Feb-17 23:00N 51°33' W 128°46'0 0.0 1003.5 8.0
2018-Feb-17 22:00N 51°33' W 128°46'2 2.1 1003.7 8.0
2018-Feb-17 21:00N 51°35' W 128°47'0 0.0 1004.0 8.0
2018-Feb-17 20:00N 51°35' W 128°47'2 1.9 1004.1 8.0
2018-Feb-17 19:00N 51°35' W 128°50'1 0.7 1004.2 8.0
2018-Feb-17 18:00N 51°34' W 128°51'0 0.0 1004.1 8.0
2018-Feb-17 17:00N 51°34' W 128°51'2 1.6 1003.8 8.0
2018-Feb-17 16:00N 51°35' W 128°49'1 0.6 1002.6 8.0
2018-Feb-17 15:00N 51°35' W 128°49'1 1.3 1001.0 8.0
2018-Feb-17 14:00N 51°35' W 128°47'0 0.0 1001.7 8.0
2018-Feb-17 13:00N 51°35' W 128°47'2 1.9 1003.5 8.0
2018-Feb-17 12:00N 51°36' W 128°44'0 0.0 1005.1 8.0
2018-Feb-17 11:00N 51°36' W 128°44'0 0.0 1007.2 8.0
2018-Feb-17 09:00N 51°36' W 128°44'1 0.6 1014.0 8.0
2018-Feb-17 07:00N 51°35' W 128°46'1 0.7 1016.1 8.0
2018-Feb-17 06:00N 51°35' W 128°47'1 1.0 1017.4 8.0
2018-Feb-17 05:00N 51°34' W 128°48'1 0.6 1019.0 8.0
2018-Feb-17 04:00N 51°34' W 128°48'1 1.0 1020.2 8.0
2018-Feb-17 03:00N 51°33' W 128°47'0 0.0 1020.6 8.0
2018-Feb-17 02:00N 51°33' W 128°47'3 2.5 1021.7 8.0
2018-Feb-17 01:00N 51°34' W 128°43'0 0.0 1021.9 8.0
2018-Feb-17 00:00N 51°34' W 128°43'0 0.0 1022.9 8.0
2018-Feb-16 23:00N 51°34' W 128°43'3 3.1 1023.0 8.0
2018-Feb-16 22:00N 51°37' W 128°44'0 0.0 1022.9 8.0
2018-Feb-16 21:00N 51°37' W 128°44'0 0.4 1022.9 8.0
2018-Feb-16 20:00N 51°37' W 128°45'1 0.7 1023.1 8.0
2018-Feb-16 19:00N 51°37' W 128°46'0 0.0 1023.2 8.0
2018-Feb-16 18:00N 51°37' W 128°46'0 0.4 1023.0 8.0
2018-Feb-16 17:00N 51°37' W 128°47'1 0.6 1023.1 8.0
2018-Feb-16 16:00N 51°37' W 128°47'1 1.3 1022.5 8.0
2018-Feb-16 15:00N 51°38' W 128°46'0 0.4 1021.6 8.0
2018-Feb-16 14:00N 51°38' W 128°46'1 1.3 1021.1 8.0
2018-Feb-16 13:00N 51°39' W 128°45'3 3.5 1020.9 8.2
2018-Feb-16 12:00N 51°41' W 128°50'0 0.0 1020.8 8.2
2018-Feb-16 11:00N 51°41' W 128°50'0 0.0 1020.7 8.3
2018-Feb-16 10:00N 51°41' W 128°50'0 0.0 1021.1 8.3
2018-Feb-16 07:00N 51°41' W 128°50'1 1.3 1022.1 8.3
2018-Feb-16 06:00N 51°40' W 128°52'2 1.9 1022.6 8.2
2018-Feb-16 05:00N 51°39' W 128°54'1 0.6 1023.4 8.3
2018-Feb-16 04:00N 51°38' W 128°54'1 0.6 1023.8 8.3
2018-Feb-16 03:00N 51°38' W 128°54'1 0.6 1023.7 8.3
2018-Feb-16 02:00N 51°37' W 128°54'1 0.7 1023.9 8.3
2018-Feb-16 01:00N 51°38' W 128°53'0 0.4 1024.5 8.3
2018-Feb-16 00:00N 51°38' W 128°53'0 0.4 1025.0 8.3
2018-Feb-15 23:00N 51°38' W 128°53'1 1.4 1025.3 8.3
2018-Feb-15 22:00N 51°39' W 128°52'0 0.0 1025.8 8.2
2018-Feb-15 21:00N 51°39' W 128°52'1 1.5 1026.3 8.2
2018-Feb-15 20:00N 51°39' W 128°55'1 1.3 1026.7 8.1
2018-Feb-15 19:00N 51°38' W 128°56'1 0.7 1027.1 8.0
2018-Feb-15 18:00N 51°38' W 128°56'1 1.2 1027.3 8.0
2018-Feb-15 17:00N 51°37' W 128°56'0 0.0 1027.8 8.0
2018-Feb-15 16:00N 51°37' W 128°56'1 1.0 1027.7 8.0
2018-Feb-15 15:00N 51°36' W 128°55'1 0.7 1027.7 8.0
2018-Feb-15 14:00N 51°36' W 128°53'0 0.0 1027.6 8.0
2018-Feb-15 13:00N 51°36' W 128°53'1 0.7 1027.8 8.0
2018-Feb-15 12:00N 51°36' W 128°52'2 1.9 1027.4 8.0
2018-Feb-15 11:00N 51°38' W 128°51'3 3.3 1027.1 8.0
2018-Feb-15 10:00N 51°40' W 128°55'0 0.0 1027.1 8.1
2018-Feb-15 07:00N 51°40' W 128°55'0 0.4 1026.5 8.3
2018-Feb-15 06:00N 51°40' W 128°55'1 1.1 1026.5 8.4
2018-Feb-15 05:00N 51°40' W 128°57'1 1.4 1026.0 8.5
2018-Feb-15 04:00N 51°39' W 128°58'1 0.6 1025.8 8.5
2018-Feb-15 03:00N 51°38' W 128°58'1 1.3 1025.5 8.5
2018-Feb-15 02:00N 51°40' W 128°58'1 0.7 1025.1 8.5
2018-Feb-15 01:00N 51°40' W 128°56'1 0.7 1024.2 8.5
2018-Feb-15 00:00N 51°40' W 128°56'1 1.3 1024.1 8.5
2018-Feb-14 23:00N 51°41' W 128°55'1 1.2 1023.4 8.5
2018-Feb-14 22:00N 51°43' W 128°55'0 0.0 1023.1 8.5
2018-Feb-14 21:00N 51°43' W 128°55'1 1.2 1022.8 8.5
2018-Feb-14 20:00N 51°44' W 128°55'1 0.7 1022.6 8.5
2018-Feb-14 19:00N 51°44' W 128°56'0 0.4 1022.0 8.5
2018-Feb-14 18:00N 51°44' W 128°57'1 0.7 1021.8 8.5
2018-Feb-14 17:00N 51°44' W 128°58'0 0.4 1021.2 8.5
2018-Feb-14 16:00N 51°44' W 128°58'0 0.0 1020.6 8.5
2018-Feb-14 15:00N 51°44' W 128°58'1 0.6 1019.7 8.5
2018-Feb-14 14:00N 51°45' W 128°58'1 0.6 1018.9 8.5
2018-Feb-14 13:00N 51°46' W 128°58'1 0.7 1018.3 8.5
2018-Feb-14 12:00N 51°45' W 128°58'1 1.3 1017.9 8.5
2018-Feb-14 11:00N 51°46' W 128°58'2 1.9 1017.7 8.5
2018-Feb-14 10:00N 51°47' W 129°01'0 0.1 1017.1 8.5
2018-Feb-14 06:00N 51°47' W 129°01'1 0.7 1015.3 8.5
2018-Feb-14 05:00N 51°47' W 129°02'0 0.4 1015.0 8.5
2018-Feb-14 04:00N 51°47' W 129°02'1 0.7 1014.7 8.5
2018-Feb-14 03:00N 51°47' W 129°03'0 0.4 1014.4 8.5
2018-Feb-14 02:00N 51°47' W 129°04'1 0.6 1014.3 8.4
2018-Feb-14 01:00N 51°48' W 129°04'0 0.4 1013.7 8.5
2018-Feb-14 00:00N 51°48' W 129°04'1 1.3 1013.5 8.5
2018-Feb-13 23:00N 51°49' W 129°04'2 1.6 1012.7 8.4
2018-Feb-13 22:00N 51°48' W 129°05'   1012.2 8.4

Dump ship's entire track history